TimePST,TemperatureF,Dew PointF,Humidity,Sea Level PressureIn,VisibilityMPH,Wind Direction,Wind SpeedMPH,Gust SpeedMPH,PrecipitationIn,Events,Conditions,WindDirDegrees,DateUTC
12:53 AM,33.1,23.0,66,30.44,10.0,East,15.0,23.0,N/A,,Clear,80,2013-01-01 08:53:00
1:53 AM,33.1,23.0,66,30.44,10.0,East,20.7,28.8,N/A,,Clear,80,2013-01-01 09:53:00
2:53 AM,33.1,23.0,66,30.45,10.0,East,15.0,23.0,N/A,,Clear,80,2013-01-01 10:53:00
3:53 AM,33.1,23.0,66,30.45,10.0,East,17.3,27.6,N/A,,Clear,80,2013-01-01 11:53:00
4:53 AM,33.1,21.9,64,30.43,10.0,East,20.7,27.6,N/A,,Clear,80,2013-01-01 12:53:00
5:53 AM,33.1,21.9,64,30.43,10.0,East,21.9,35.7,N/A,,Clear,80,2013-01-01 13:53:00
6:53 AM,33.1,21.9,64,30.45,10.0,East,13.8,19.6,N/A,,Clear,80,2013-01-01 14:53:00
7:53 AM,33.1,21.9,64,30.46,10.0,East,18.4,24.2,N/A,,Clear,80,2013-01-01 15:53:00
8:53 AM,34.0,21.9,61,30.46,10.0,East,24.2,33.4,N/A,,Clear,90,2013-01-01 16:53:00
9:53 AM,36.0,23.0,59,30.46,10.0,East,24.2,32.2,N/A,,Clear,90,2013-01-01 17:53:00
10:53 AM,37.0,23.0,57,30.46,10.0,East,21.9,31.1,N/A,,Clear,90,2013-01-01 18:53:00
11:53 AM,37.9,24.1,57,30.44,10.0,East,23.0,31.1,N/A,,Clear,90,2013-01-01 19:53:00
12:53 PM,37.9,24.1,57,30.40,10.0,East,25.3,33.4,N/A,,Clear,90,2013-01-01 20:53:00
2:53 PM,36.0,23.0,59,30.40,10.0,East,28.8,39.1,N/A,,Clear,90,2013-01-01 22:53:00
3:53 PM,35.1,21.9,59,30.40,10.0,East,28.8,40.3,N/A,,Clear,90,2013-01-01 23:53:00
4:53 PM,34.0,21.0,59,30.41,10.0,East,18.4,28.8,N/A,,Clear,90,2013-01-02 00:53:00
5:53 PM,34.0,21.0,59,30.40,10.0,East,20.7,33.4,N/A,,Clear,80,2013-01-02 01:53:00
6:53 PM,34.0,21.0,59,30.41,10.0,East,21.9,29.9,N/A,,Clear,80,2013-01-02 02:53:00
7:53 PM,34.0,19.9,56,30.41,10.0,East,25.3,34.5,N/A,,Clear,80,2013-01-02 03:53:00
8:53 PM,34.0,19.9,56,30.40,10.0,East,21.9,29.9,N/A,,Clear,90,2013-01-02 04:53:00
9:53 PM,34.0,19.9,56,30.38,10.0,East,20.7,34.5,N/A,,Clear,80,2013-01-02 05:53:00
10:53 PM,34.0,19.9,56,30.38,10.0,East,23.0,32.2,N/A,,Clear,80,2013-01-02 06:53:00
11:53 PM,34.0,19.9,56,30.37,10.0,East,26.5,34.5,N/A,,Clear,90,2013-01-02 07:53:00